Terminal Aerodrome Forecast
Issued by NWS Huntsville, AL

Home | Current Version | Previous Version | Text Only | Print | Product List | Glossary On
Versions: 1 2 3 4 5 6 7 8 9 10 11 12 13 14 15
000
FTUS44 KHUN 301339 AAB
TAFMSL
TAF AMD
KMSL 301339Z 3014/0112 VRB04KT 3SM BR SCT002 BKN015
      TEMPO 3014/3015 1SM BR BKN002
     FM301500 28005KT P6SM BKN030
     FM301700 30010KT P6SM SCT030
     FM010000 VRB03KT P6SM SCT050=

USA.gov is the U.S. government's official web portal to all federal, state and local government web resources and services.